sensor_id;sensor_type;location;lat;lon;timestamp;pressure;altitude;pressure_sealevel;temperature;humidity
17260;BME280;8746;49.230;9.220;2022-09-01T00:01:25;100220.09;;;16.41;73.17
17260;BME280;8746;49.230;9.220;2022-09-01T00:03:53;100206.78;;;16.41;73.13
17260;BME280;8746;49.230;9.220;2022-09-01T00:06:21;100210.69;;;16.50;73.03
17260;BME280;8746;49.230;9.220;2022-09-01T00:08:53;100214.50;;;16.60;72.46
17260;BME280;8746;49.230;9.220;2022-09-01T00:11:21;100218.03;;;16.61;72.68
17260;BME280;8746;49.230;9.220;2022-09-01T00:13:48;100210.97;;;16.60;72.79
17260;BME280;8746;49.230;9.220;2022-09-01T00:16:14;100213.47;;;16.63;72.81
17260;BME280;8746;49.230;9.220;2022-09-01T00:18:42;100219.84;;;16.60;72.86
17260;BME280;8746;49.230;9.220;2022-09-01T00:21:11;100217.81;;;16.49;73.31
17260;BME280;8746;49.230;9.220;2022-09-01T00:23:37;100214.41;;;16.62;72.94
17260;BME280;8746;49.230;9.220;2022-09-01T00:26:03;100207.53;;;16.43;73.60
17260;BME280;8746;49.230;9.220;2022-09-01T00:28:32;100214.22;;;16.50;73.62
17260;BME280;8746;49.230;9.220;2022-09-01T00:30:57;100207.16;;;16.49;73.59
17260;BME280;8746;49.230;9.220;2022-09-01T00:33:23;100208.13;;;16.48;73.71
17260;BME280;8746;49.230;9.220;2022-09-01T00:35:48;100204.22;;;16.54;73.93
17260;BME280;8746;49.230;9.220;2022-09-01T00:38:13;100207.03;;;16.37;74.09
17260;BME280;8746;49.230;9.220;2022-09-01T00:40:39;100204.66;;;16.32;74.46
17260;BME280;8746;49.230;9.220;2022-09-01T00:43:17;100205.03;;;16.26;74.70
17260;BME280;8746;49.230;9.220;2022-09-01T00:45:44;100204.19;;;16.25;74.71
17260;BME280;8746;49.230;9.220;2022-09-01T00:48:10;100212.13;;;16.11;75.52
17260;BME280;8746;49.230;9.220;2022-09-01T00:50:36;100203.28;;;16.10;75.62
17260;BME280;8746;49.230;9.220;2022-09-01T00:53:03;100207.66;;;16.11;75.54
17260;BME280;8746;49.230;9.220;2022-09-01T00:55:32;100212.16;;;15.95;76.41
17260;BME280;8746;49.230;9.220;2022-09-01T00:58:00;100203.81;;;16.01;76.30
17260;BME280;8746;49.230;9.220;2022-09-01T01:00:28;100209.56;;;16.09;76.13
17260;BME280;8746;49.230;9.220;2022-09-01T01:02:55;100206.22;;;16.06;76.12
17260;BME280;8746;49.230;9.220;2022-09-01T01:05:22;100195.69;;;16.04;76.34
17260;BME280;8746;49.230;9.220;2022-09-01T01:07:48;100197.72;;;15.99;76.67
17260;BME280;8746;49.230;9.220;2022-09-01T01:10:17;100208.56;;;15.96;76.67
17260;BME280;8746;49.230;9.220;2022-09-01T01:12:43;100201.34;;;15.98;76.62
17260;BME280;8746;49.230;9.220;2022-09-01T01:15:13;100199.50;;;15.84;77.14
17260;BME280;8746;49.230;9.220;2022-09-01T01:17:39;100198.78;;;15.80;77.47
17260;BME280;8746;49.230;9.220;2022-09-01T01:20:06;100194.00;;;15.87;77.08
17260;BME280;8746;49.230;9.220;2022-09-01T01:23:30;100198.28;;;15.74;77.79
17260;BME280;8746;49.230;9.220;2022-09-01T01:26:02;100194.34;;;15.65;78.02
17260;BME280;8746;49.230;9.220;2022-09-01T01:28:31;100192.06;;;15.59;78.36
17260;BME280;8746;49.230;9.220;2022-09-01T01:31:03;100188.38;;;15.61;78.11
17260;BME280;8746;49.230;9.220;2022-09-01T01:33:36;100191.28;;;15.57;78.42
17260;BME280;8746;49.230;9.220;2022-09-01T01:36:08;100183.88;;;15.62;78.18
17260;BME280;8746;49.230;9.220;2022-09-01T01:38:40;100180.81;;;15.53;78.81
17260;BME280;8746;49.230;9.220;2022-09-01T01:41:09;100182.53;;;15.54;78.94
17260;BME280;8746;49.230;9.220;2022-09-01T01:43:35;100181.22;;;15.62;78.72
17260;BME280;8746;49.230;9.220;2022-09-01T01:46:03;100189.91;;;15.49;79.04
17260;BME280;8746;49.230;9.220;2022-09-01T01:48:30;100184.25;;;15.55;78.90
17260;BME280;8746;49.230;9.220;2022-09-01T01:50:59;100189.13;;;15.47;78.92
17260;BME280;8746;49.230;9.220;2022-09-01T01:53:26;100188.53;;;15.42;79.27
17260;BME280;8746;49.230;9.220;2022-09-01T01:55:51;100194.38;;;15.49;79.11
17260;BME280;8746;49.230;9.220;2022-09-01T01:58:19;100197.19;;;15.46;79.51
17260;BME280;8746;49.230;9.220;2022-09-01T02:00:45;100199.00;;;15.45;79.67
17260;BME280;8746;49.230;9.220;2022-09-01T02:03:15;100198.13;;;15.45;79.57
17260;BME280;8746;49.230;9.220;2022-09-01T02:05:46;100200.53;;;15.49;79.67
17260;BME280;8746;49.230;9.220;2022-09-01T02:08:12;100204.13;;;15.48;79.28
17260;BME280;8746;49.230;9.220;2022-09-01T02:10:44;100195.06;;;15.52;79.31
17260;BME280;8746;49.230;9.220;2022-09-01T02:13:12;100192.31;;;15.54;79.66
17260;BME280;8746;49.230;9.220;2022-09-01T02:15:47;100195.72;;;15.56;79.49
17260;BME280;8746;49.230;9.220;2022-09-01T02:18:24;100202.28;;;15.34;80.04
17260;BME280;8746;49.230;9.220;2022-09-01T02:20:52;100205.69;;;15.36;80.38
17260;BME280;8746;49.230;9.220;2022-09-01T02:23:19;100197.03;;;15.33;80.36
17260;BME280;8746;49.230;9.220;2022-09-01T02:25:48;100198.22;;;15.43;80.17
17260;BME280;8746;49.230;9.220;2022-09-01T02:28:16;100199.03;;;15.29;80.91
17260;BME280;8746;49.230;9.220;2022-09-01T02:30:50;100198.16;;;15.29;80.76
17260;BME280;8746;49.230;9.220;2022-09-01T02:33:18;100193.25;;;15.37;80.93
17260;BME280;8746;49.230;9.220;2022-09-01T02:35:53;100190.25;;;15.43;80.76
17260;BME280;8746;49.230;9.220;2022-09-01T02:38:20;100192.13;;;15.41;81.13
17260;BME280;8746;49.230;9.220;2022-09-01T02:40:51;100191.19;;;15.42;80.92
17260;BME280;8746;49.230;9.220;2022-09-01T02:43:19;100192.56;;;15.49;80.80
17260;BME280;8746;49.230;9.220;2022-09-01T02:45:46;100186.66;;;15.44;80.94
17260;BME280;8746;49.230;9.220;2022-09-01T02:48:12;100185.72;;;15.45;80.73
17260;BME280;8746;49.230;9.220;2022-09-01T02:50:39;100188.03;;;15.51;80.81
17260;BME280;8746;49.230;9.220;2022-09-01T02:53:05;100185.63;;;15.47;80.38
17260;BME280;8746;49.230;9.220;2022-09-01T02:55:40;100190.59;;;15.37;80.75
17260;BME280;8746;49.230;9.220;2022-09-01T02:58:06;100187.75;;;15.40;80.72
17260;BME280;8746;49.230;9.220;2022-09-01T03:00:44;100186.91;;;15.39;81.14
17260;BME280;8746;49.230;9.220;2022-09-01T03:03:10;100185.44;;;15.34;81.13
17260;BME280;8746;49.230;9.220;2022-09-01T03:05:42;100179.28;;;15.49;80.72
17260;BME280;8746;49.230;9.220;2022-09-01T03:08:09;100187.00;;;15.54;80.81
17260;BME280;8746;49.230;9.220;2022-09-01T03:10:38;100182.53;;;15.54;81.00
17260;BME280;8746;49.230;9.220;2022-09-01T03:13:23;100188.19;;;15.48;81.26
17260;BME280;8746;49.230;9.220;2022-09-01T03:15:51;100184.59;;;15.49;81.19
17260;BME280;8746;49.230;9.220;2022-09-01T03:18:16;100179.63;;;15.43;81.70
17260;BME280;8746;49.230;9.220;2022-09-01T03:20:45;100176.72;;;15.48;81.34
17260;BME280;8746;49.230;9.220;2022-09-01T03:23:13;100177.19;;;15.54;81.15
17260;BME280;8746;49.230;9.220;2022-09-01T03:25:41;100173.44;;;15.59;81.00
17260;BME280;8746;49.230;9.220;2022-09-01T03:28:07;100176.09;;;15.59;81.13
17260;BME280;8746;49.230;9.220;2022-09-01T03:30:35;100175.91;;;15.62;80.86
17260;BME280;8746;49.230;9.220;2022-09-01T03:33:03;100185.41;;;15.66;81.06
17260;BME280;8746;49.230;9.220;2022-09-01T03:35:29;100179.25;;;15.65;81.00
17260;BME280;8746;49.230;9.220;2022-09-01T03:37:57;100181.28;;;15.76;80.76
17260;BME280;8746;49.230;9.220;2022-09-01T03:40:24;100191.34;;;15.71;81.05
17260;BME280;8746;49.230;9.220;2022-09-01T03:42:52;100182.00;;;15.64;80.86
17260;BME280;8746;49.230;9.220;2022-09-01T03:45:17;100179.34;;;15.64;81.10
17260;BME280;8746;49.230;9.220;2022-09-01T03:47:45;100182.00;;;15.64;80.80
17260;BME280;8746;49.230;9.220;2022-09-01T03:50:17;100189.19;;;15.62;81.21
17260;BME280;8746;49.230;9.220;2022-09-01T03:52:54;100182.75;;;15.66;81.21
17260;BME280;8746;49.230;9.220;2022-09-01T03:55:27;100186.09;;;15.69;80.94
17260;BME280;8746;49.230;9.220;2022-09-01T03:57:56;100185.16;;;15.70;81.06
17260;BME280;8746;49.230;9.220;2022-09-01T04:00:25;100181.28;;;15.76;80.87
17260;BME280;8746;49.230;9.220;2022-09-01T04:02:57;100181.53;;;15.88;80.40
17260;BME280;8746;49.230;9.220;2022-09-01T04:05:24;100181.19;;;15.78;80.72
17260;BME280;8746;49.230;9.220;2022-09-01T04:07:57;100180.50;;;15.74;80.82
17260;BME280;8746;49.230;9.220;2022-09-01T04:10:23;100191.59;;;15.82;80.51
17260;BME280;8746;49.230;9.220;2022-09-01T04:12:49;100193.13;;;15.70;80.97
17260;BME280;8746;49.230;9.220;2022-09-01T04:15:16;100185.94;;;15.73;81.39
17260;BME280;8746;49.230;9.220;2022-09-01T04:17:43;100186.78;;;15.73;80.99
17260;BME280;8746;49.230;9.220;2022-09-01T04:20:27;100179.75;;;15.72;80.90
17260;BME280;8746;49.230;9.220;2022-09-01T04:22:53;100185.59;;;15.63;81.27
17260;BME280;8746;49.230;9.220;2022-09-01T04:25:19;100185.75;;;15.60;81.67
17260;BME280;8746;49.230;9.220;2022-09-01T04:27:51;100190.72;;;15.66;81.24
17260;BME280;8746;49.230;9.220;2022-09-01T04:30:20;100189.78;;;15.67;81.32
17260;BME280;8746;49.230;9.220;2022-09-01T04:32:53;100180.91;;;15.52;82.31
17260;BME280;8746;49.230;9.220;2022-09-01T04:35:21;100184.00;;;15.44;82.21
17260;BME280;8746;49.230;9.220;2022-09-01T04:37:52;100185.53;;;15.32;82.76
17260;BME280;8746;49.230;9.220;2022-09-01T04:40:18;100177.22;;;15.22;83.20
17260;BME280;8746;49.230;9.220;2022-09-01T04:42:47;100184.94;;;15.27;83.02
17260;BME280;8746;49.230;9.220;2022-09-01T04:45:13;100184.75;;;15.30;82.99
17260;BME280;8746;49.230;9.220;2022-09-01T04:47:40;100192.16;;;15.25;83.06
17260;BME280;8746;49.230;9.220;2022-09-01T04:50:08;100192.91;;;14.95;83.89
17260;BME280;8746;49.230;9.220;2022-09-01T04:52:44;100197.34;;;14.95;83.78
17260;BME280;8746;49.230;9.220;2022-09-01T04:55:11;100192.09;;;14.77;84.03
17260;BME280;8746;49.230;9.220;2022-09-01T04:57:43;100195.88;;;14.73;84.86
17260;BME280;8746;49.230;9.220;2022-09-01T05:00:19;100195.00;;;14.55;85.25
17260;BME280;8746;49.230;9.220;2022-09-01T05:02:54;100192.88;;;14.62;85.20
17260;BME280;8746;49.230;9.220;2022-09-01T05:05:21;100200.31;;;14.55;85.85
17260;BME280;8746;49.230;9.220;2022-09-01T05:07:48;100192.28;;;14.56;85.79
17260;BME280;8746;49.230;9.220;2022-09-01T05:10:21;100185.94;;;14.59;85.71
17260;BME280;8746;49.230;9.220;2022-09-01T05:12:48;100198.59;;;14.71;85.47
17260;BME280;8746;49.230;9.220;2022-09-01T05:15:15;100190.84;;;14.67;85.66
17260;BME280;8746;49.230;9.220;2022-09-01T05:17:41;100197.56;;;14.74;85.18
17260;BME280;8746;49.230;9.220;2022-09-01T05:20:09;100202.88;;;14.74;85.28
17260;BME280;8746;49.230;9.220;2022-09-01T05:22:36;100199.19;;;14.77;85.35
17260;BME280;8746;49.230;9.220;2022-09-01T05:25:06;100198.00;;;14.82;85.17
17260;BME280;8746;49.230;9.220;2022-09-01T05:27:42;100207.69;;;14.83;84.70
17260;BME280;8746;49.230;9.220;2022-09-01T05:30:14;100201.03;;;14.92;84.82
17260;BME280;8746;49.230;9.220;2022-09-01T05:32:41;100204.63;;;15.07;83.99
17260;BME280;8746;49.230;9.220;2022-09-01T05:35:08;100197.72;;;15.20;83.65
17260;BME280;8746;49.230;9.220;2022-09-01T05:37:35;100199.63;;;15.18;83.50
17260;BME280;8746;49.230;9.220;2022-09-01T05:40:04;100198.34;;;15.26;82.98
17260;BME280;8746;49.230;9.220;2022-09-01T05:42:29;100206.56;;;15.37;82.65
17260;BME280;8746;49.230;9.220;2022-09-01T05:44:56;100209.66;;;15.29;83.08
17260;BME280;8746;49.230;9.220;2022-09-01T05:47:22;100210.84;;;15.39;82.57
17260;BME280;8746;49.230;9.220;2022-09-01T05:49:48;100212.47;;;15.42;82.53
17260;BME280;8746;49.230;9.220;2022-09-01T05:52:14;100216.34;;;15.52;81.96
17260;BME280;8746;49.230;9.220;2022-09-01T05:54:39;100218.38;;;15.47;82.14
17260;BME280;8746;49.230;9.220;2022-09-01T05:57:05;100220.53;;;15.57;82.37
17260;BME280;8746;49.230;9.220;2022-09-01T05:59:31;100222.31;;;15.56;81.92
17260;BME280;8746;49.230;9.220;2022-09-01T06:01:57;100230.63;;;15.66;81.82
17260;BME280;8746;49.230;9.220;2022-09-01T06:04:23;100232.63;;;15.62;81.90
17260;BME280;8746;49.230;9.220;2022-09-01T06:06:50;100225.50;;;15.47;82.42
17260;BME280;8746;49.230;9.220;2022-09-01T06:09:16;100224.38;;;15.35;82.85
17260;BME280;8746;49.230;9.220;2022-09-01T06:11:43;100222.16;;;15.43;82.57
17260;BME280;8746;49.230;9.220;2022-09-01T06:14:11;100230.56;;;15.35;83.06
17260;BME280;8746;49.230;9.220;2022-09-01T06:16:37;100228.50;;;15.41;82.78
17260;BME280;8746;49.230;9.220;2022-09-01T06:19:03;100230.91;;;15.45;82.70
17260;BME280;8746;49.230;9.220;2022-09-01T06:21:29;100228.16;;;15.63;82.27
17260;BME280;8746;49.230;9.220;2022-09-01T06:23:57;100229.16;;;15.76;81.84
17260;BME280;8746;49.230;9.220;2022-09-01T06:26:24;100228.84;;;15.82;81.45
17260;BME280;8746;49.230;9.220;2022-09-01T06:28:54;100225.25;;;15.83;81.30
17260;BME280;8746;49.230;9.220;2022-09-01T06:31:25;100236.47;;;15.73;81.24
17260;BME280;8746;49.230;9.220;2022-09-01T06:33:52;100229.16;;;15.76;81.74
17260;BME280;8746;49.230;9.220;2022-09-01T06:36:20;100233.09;;;16.01;80.91
17260;BME280;8746;49.230;9.220;2022-09-01T06:38:47;100225.16;;;16.15;80.40
17260;BME280;8746;49.230;9.220;2022-09-01T06:41:12;100223.75;;;16.24;80.23
17260;BME280;8746;49.230;9.220;2022-09-01T06:43:39;100225.59;;;16.53;79.53
17260;BME280;8746;49.230;9.220;2022-09-01T06:46:06;100221.47;;;16.77;78.26
17260;BME280;8746;49.230;9.220;2022-09-01T06:48:34;100224.41;;;16.73;78.26
17260;BME280;8746;49.230;9.220;2022-09-01T06:51:01;100224.00;;;16.64;78.60
17260;BME280;8746;49.230;9.220;2022-09-01T06:53:28;100225.47;;;16.70;78.68
17260;BME280;8746;49.230;9.220;2022-09-01T06:55:56;100229.75;;;17.02;77.92
17260;BME280;8746;49.230;9.220;2022-09-01T06:58:22;100223.34;;;16.75;77.93
17260;BME280;8746;49.230;9.220;2022-09-01T07:00:48;100225.47;;;16.85;77.80
17260;BME280;8746;49.230;9.220;2022-09-01T07:03:14;100226.03;;;16.90;77.67
17260;BME280;8746;49.230;9.220;2022-09-01T07:05:43;100229.38;;;17.08;77.06
17260;BME280;8746;49.230;9.220;2022-09-01T07:08:11;100226.28;;;17.28;75.99
17260;BME280;8746;49.230;9.220;2022-09-01T07:10:44;100226.69;;;17.08;76.30
17260;BME280;8746;49.230;9.220;2022-09-01T07:13:17;100224.25;;;17.05;76.65
17260;BME280;8746;49.230;9.220;2022-09-01T07:15:51;100224.00;;;17.37;76.03
17260;BME280;8746;49.230;9.220;2022-09-01T07:18:22;100234.34;;;17.56;75.34
17260;BME280;8746;49.230;9.220;2022-09-01T07:20:50;100236.56;;;17.76;74.51
17260;BME280;8746;49.230;9.220;2022-09-01T07:23:18;100240.09;;;17.77;74.54
17260;BME280;8746;49.230;9.220;2022-09-01T07:25:48;100240.22;;;17.88;73.88
17260;BME280;8746;49.230;9.220;2022-09-01T07:28:16;100238.13;;;18.21;72.87
17260;BME280;8746;49.230;9.220;2022-09-01T07:30:48;100234.19;;;18.39;72.72
17260;BME280;8746;49.230;9.220;2022-09-01T07:33:15;100240.97;;;18.18;72.08
17260;BME280;8746;49.230;9.220;2022-09-01T07:35:45;100241.75;;;18.20;72.27
17260;BME280;8746;49.230;9.220;2022-09-01T07:38:11;100239.41;;;18.28;72.11
17260;BME280;8746;49.230;9.220;2022-09-01T07:40:39;100234.94;;;18.41;70.59
17260;BME280;8746;49.230;9.220;2022-09-01T07:43:09;100238.13;;;18.34;71.34
17260;BME280;8746;49.230;9.220;2022-09-01T07:45:42;100240.72;;;18.35;71.29
17260;BME280;8746;49.230;9.220;2022-09-01T07:48:09;100239.94;;;18.33;70.58
17260;BME280;8746;49.230;9.220;2022-09-01T07:50:35;100243.81;;;18.29;70.26
17260;BME280;8746;49.230;9.220;2022-09-01T07:53:02;100246.56;;;18.27;71.70
17260;BME280;8746;49.230;9.220;2022-09-01T07:55:28;100250.22;;;18.39;70.77
17260;BME280;8746;49.230;9.220;2022-09-01T07:57:55;100241.84;;;18.31;71.04
17260;BME280;8746;49.230;9.220;2022-09-01T08:00:21;100248.31;;;18.41;70.48
17260;BME280;8746;49.230;9.220;2022-09-01T08:02:47;100244.69;;;18.42;70.29
17260;BME280;8746;49.230;9.220;2022-09-01T08:05:16;100239.53;;;18.65;69.65
17260;BME280;8746;49.230;9.220;2022-09-01T08:07:46;100239.44;;;19.18;68.85
17260;BME280;8746;49.230;9.220;2022-09-01T08:10:13;100239.13;;;18.97;69.18
17260;BME280;8746;49.230;9.220;2022-09-01T08:12:38;100244.34;;;19.12;67.64
17260;BME280;8746;49.230;9.220;2022-09-01T08:15:06;100241.56;;;19.13;68.06
17260;BME280;8746;49.230;9.220;2022-09-01T08:17:33;100243.19;;;19.16;68.01
17260;BME280;8746;49.230;9.220;2022-09-01T08:20:01;100241.38;;;19.03;67.72
17260;BME280;8746;49.230;9.220;2022-09-01T08:22:26;100254.53;;;18.94;68.25
17260;BME280;8746;49.230;9.220;2022-09-01T08:24:52;100251.53;;;18.72;68.35
17260;BME280;8746;49.230;9.220;2022-09-01T08:27:18;100256.88;;;18.72;69.12
17260;BME280;8746;49.230;9.220;2022-09-01T08:29:44;100250.34;;;18.89;68.68
17260;BME280;8746;49.230;9.220;2022-09-01T08:32:09;100247.88;;;19.25;68.15
17260;BME280;8746;49.230;9.220;2022-09-01T08:34:36;100247.75;;;19.27;66.36
17260;BME280;8746;49.230;9.220;2022-09-01T08:37:02;100253.44;;;19.22;66.76
17260;BME280;8746;49.230;9.220;2022-09-01T08:39:28;100253.69;;;18.93;67.47
17260;BME280;8746;49.230;9.220;2022-09-01T08:41:57;100247.25;;;19.09;67.51
17260;BME280;8746;49.230;9.220;2022-09-01T08:47:00;100239.91;;;19.74;66.11
17260;BME280;8746;49.230;9.220;2022-09-01T08:49:27;100240.72;;;19.87;64.18
17260;BME280;8746;49.230;9.220;2022-09-01T08:54:49;100239.19;;;19.96;63.01
17260;BME280;8746;49.230;9.220;2022-09-01T08:57:25;100242.84;;;20.30;62.95
17260;BME280;8746;49.230;9.220;2022-09-01T08:59:53;100233.69;;;20.33;63.73
17260;BME280;8746;49.230;9.220;2022-09-01T09:11:04;100231.75;;;21.05;60.60
17260;BME280;8746;49.230;9.220;2022-09-01T09:16:00;100244.00;;;20.50;60.92
17260;BME280;8746;49.230;9.220;2022-09-01T09:18:42;100242.34;;;20.25;62.11
17260;BME280;8746;49.230;9.220;2022-09-01T09:21:32;100240.97;;;20.66;61.91
17260;BME280;8746;49.230;9.220;2022-09-01T09:24:06;100239.47;;;20.40;61.68
17260;BME280;8746;49.230;9.220;2022-09-01T09:26:33;100231.66;;;20.84;61.42
17260;BME280;8746;49.230;9.220;2022-09-01T09:28:58;100228.47;;;21.24;59.56
17260;BME280;8746;49.230;9.220;2022-09-01T09:31:36;100222.25;;;21.01;59.40
17260;BME280;8746;49.230;9.220;2022-09-01T09:34:16;100227.66;;;20.65;60.60
17260;BME280;8746;49.230;9.220;2022-09-01T09:36:42;100231.25;;;20.77;60.32
17260;BME280;8746;49.230;9.220;2022-09-01T09:39:13;100229.03;;;21.27;59.57
17260;BME280;8746;49.230;9.220;2022-09-01T09:41:42;100228.19;;;21.27;57.19
17260;BME280;8746;49.230;9.220;2022-09-01T09:44:26;100220.25;;;21.37;57.62
17260;BME280;8746;49.230;9.220;2022-09-01T09:46:54;100222.00;;;21.26;57.48
17260;BME280;8746;49.230;9.220;2022-09-01T09:51:53;100220.88;;;21.29;57.82
17260;BME280;8746;49.230;9.220;2022-09-01T09:54:20;100226.31;;;21.61;55.94
17260;BME280;8746;49.230;9.220;2022-09-01T09:56:47;100220.28;;;21.81;55.94
17260;BME280;8746;49.230;9.220;2022-09-01T09:59:28;100227.66;;;21.56;55.52
17260;BME280;8746;49.230;9.220;2022-09-01T10:01:58;100227.53;;;21.69;56.55
17260;BME280;8746;49.230;9.220;2022-09-01T10:04:33;100223.03;;;21.46;55.57
17260;BME280;8746;49.230;9.220;2022-09-01T10:06:59;100216.03;;;21.23;56.76
17260;BME280;8746;49.230;9.220;2022-09-01T10:11:53;100215.66;;;21.83;55.02
17260;BME280;8746;49.230;9.220;2022-09-01T10:14:34;100220.97;;;21.61;54.47
17260;BME280;8746;49.230;9.220;2022-09-01T10:17:07;100208.97;;;21.10;55.27
17260;BME280;8746;49.230;9.220;2022-09-01T10:19:34;100210.03;;;21.08;55.89
17260;BME280;8746;49.230;9.220;2022-09-01T10:22:04;100208.06;;;21.21;56.02
17260;BME280;8746;49.230;9.220;2022-09-01T10:24:35;100206.66;;;21.06;54.98
17260;BME280;8746;49.230;9.220;2022-09-01T10:27:14;100217.03;;;21.54;55.42
17260;BME280;8746;49.230;9.220;2022-09-01T10:29:45;100219.38;;;21.48;54.54
17260;BME280;8746;49.230;9.220;2022-09-01T10:32:16;100217.56;;;21.59;54.61
17260;BME280;8746;49.230;9.220;2022-09-01T10:34:42;100214.84;;;21.48;54.95
17260;BME280;8746;49.230;9.220;2022-09-01T10:37:10;100215.13;;;21.56;55.16
17260;BME280;8746;49.230;9.220;2022-09-01T10:42:41;100211.22;;;21.38;55.55
17260;BME280;8746;49.230;9.220;2022-09-01T10:45:16;100209.19;;;21.74;55.07
17260;BME280;8746;49.230;9.220;2022-09-01T10:47:43;100213.13;;;21.70;54.78
17260;BME280;8746;49.230;9.220;2022-09-01T10:50:25;100205.53;;;22.50;54.01
17260;BME280;8746;49.230;9.220;2022-09-01T10:52:53;100192.28;;;22.58;52.64
17260;BME280;8746;49.230;9.220;2022-09-01T10:55:33;100207.84;;;22.54;53.14
17260;BME280;8746;49.230;9.220;2022-09-01T11:08:44;100198.97;;;21.68;52.80
17260;BME280;8746;49.230;9.220;2022-09-01T11:11:26;100193.81;;;22.30;52.97
17260;BME280;8746;49.230;9.220;2022-09-01T11:13:55;100191.53;;;22.77;51.02
17260;BME280;8746;49.230;9.220;2022-09-01T11:18:55;100191.44;;;22.88;51.00
17260;BME280;8746;49.230;9.220;2022-09-01T11:21:39;100182.66;;;23.17;48.63
17260;BME280;8746;49.230;9.220;2022-09-01T11:30:20;100171.66;;;24.19;48.48
17260;BME280;8746;49.230;9.220;2022-09-01T11:32:50;100179.63;;;23.71;48.27
17260;BME280;8746;49.230;9.220;2022-09-01T11:35:21;100170.53;;;24.21;47.00
17260;BME280;8746;49.230;9.220;2022-09-01T11:37:49;100177.19;;;24.17;48.08
17260;BME280;8746;49.230;9.220;2022-09-01T11:40:20;100172.72;;;23.18;48.14
17260;BME280;8746;49.230;9.220;2022-09-01T11:42:48;100171.13;;;23.15;49.69
17260;BME280;8746;49.230;9.220;2022-09-01T11:45:19;100174.56;;;22.86;49.28
17260;BME280;8746;49.230;9.220;2022-09-01T11:47:48;100161.72;;;22.90;49.44
17260;BME280;8746;49.230;9.220;2022-09-01T11:50:21;100157.53;;;22.66;50.84
17260;BME280;8746;49.230;9.220;2022-09-01T11:53:05;100168.22;;;22.14;51.60
17260;BME280;8746;49.230;9.220;2022-09-01T11:55:43;100166.88;;;22.41;51.24
17260;BME280;8746;49.230;9.220;2022-09-01T11:58:29;100170.19;;;21.91;51.25
17260;BME280;8746;49.230;9.220;2022-09-01T12:00:57;100164.94;;;22.10;51.46
17260;BME280;8746;49.230;9.220;2022-09-01T12:03:35;100159.09;;;22.38;50.55
17260;BME280;8746;49.230;9.220;2022-09-01T12:06:04;100160.06;;;22.16;50.38
17260;BME280;8746;49.230;9.220;2022-09-01T12:08:34;100155.66;;;22.98;49.56
17260;BME280;8746;49.230;9.220;2022-09-01T12:13:31;100154.91;;;23.27;47.88
17260;BME280;8746;49.230;9.220;2022-09-01T12:16:02;100153.72;;;22.69;49.42
17260;BME280;8746;49.230;9.220;2022-09-01T12:18:34;100145.03;;;22.96;49.21
17260;BME280;8746;49.230;9.220;2022-09-01T12:21:04;100150.41;;;22.55;49.40
17260;BME280;8746;49.230;9.220;2022-09-01T12:23:35;100157.97;;;23.12;48.99
17260;BME280;8746;49.230;9.220;2022-09-01T12:26:16;100142.34;;;23.76;47.48
17260;BME280;8746;49.230;9.220;2022-09-01T12:28:43;100136.78;;;23.88;46.31
17260;BME280;8746;49.230;9.220;2022-09-01T12:31:18;100141.19;;;23.69;46.96
17260;BME280;8746;49.230;9.220;2022-09-01T12:33:45;100133.63;;;24.22;45.91
17260;BME280;8746;49.230;9.220;2022-09-01T12:36:31;100135.97;;;23.77;45.85
17260;BME280;8746;49.230;9.220;2022-09-01T12:39:35;100132.56;;;23.65;46.41
17260;BME280;8746;49.230;9.220;2022-09-01T12:44:44;100124.47;;;23.36;46.00
17260;BME280;8746;49.230;9.220;2022-09-01T12:47:42;100120.94;;;23.55;45.97
17260;BME280;8746;49.230;9.220;2022-09-01T12:50:04;100113.25;;;24.09;45.10
17260;BME280;8746;49.230;9.220;2022-09-01T12:52:32;100118.06;;;24.06;45.98
17260;BME280;8746;49.230;9.220;2022-09-01T12:57:28;100113.00;;;25.06;43.91
17260;BME280;8746;49.230;9.220;2022-09-01T13:02:42;100107.69;;;24.58;44.98
17260;BME280;8746;49.230;9.220;2022-09-01T13:05:29;100109.44;;;24.87;43.67
17260;BME280;8746;49.230;9.220;2022-09-01T13:07:57;100106.88;;;24.86;44.37
17260;BME280;8746;49.230;9.220;2022-09-01T13:10:24;100109.94;;;24.73;44.41
17260;BME280;8746;49.230;9.220;2022-09-01T13:12:53;100102.00;;;24.24;45.99
17260;BME280;8746;49.230;9.220;2022-09-01T13:15:21;100105.88;;;24.11;45.96
17260;BME280;8746;49.230;9.220;2022-09-01T13:17:46;100102.19;;;24.03;46.44
17260;BME280;8746;49.230;9.220;2022-09-01T13:20:12;100099.06;;;23.88;46.40
17260;BME280;8746;49.230;9.220;2022-09-01T13:22:38;100107.91;;;23.41;47.45
17260;BME280;8746;49.230;9.220;2022-09-01T13:25:07;100102.69;;;22.98;48.96
17260;BME280;8746;49.230;9.220;2022-09-01T13:27:35;100097.81;;;22.72;48.36
17260;BME280;8746;49.230;9.220;2022-09-01T13:30:02;100099.75;;;22.61;48.95
17260;BME280;8746;49.230;9.220;2022-09-01T13:32:27;100093.53;;;22.60;48.28
17260;BME280;8746;49.230;9.220;2022-09-01T13:34:53;100100.25;;;22.45;49.09
17260;BME280;8746;49.230;9.220;2022-09-01T13:37:20;100090.72;;;22.62;49.06
17260;BME280;8746;49.230;9.220;2022-09-01T13:39:45;100086.84;;;22.85;47.57
17260;BME280;8746;49.230;9.220;2022-09-01T13:42:14;100082.13;;;22.87;47.01
17260;BME280;8746;49.230;9.220;2022-09-01T13:44:39;100083.59;;;22.92;46.31
17260;BME280;8746;49.230;9.220;2022-09-01T13:47:04;100079.28;;;23.40;45.87
17260;BME280;8746;49.230;9.220;2022-09-01T13:49:30;100081.50;;;24.03;45.29
17260;BME280;8746;49.230;9.220;2022-09-01T13:51:55;100077.16;;;24.30;43.53
17260;BME280;8746;49.230;9.220;2022-09-01T13:54:21;100073.19;;;24.24;43.75
17260;BME280;8746;49.230;9.220;2022-09-01T13:56:46;100065.81;;;24.26;44.02
17260;BME280;8746;49.230;9.220;2022-09-01T13:59:12;100071.91;;;24.66;43.41
17260;BME280;8746;49.230;9.220;2022-09-01T14:01:37;100069.91;;;24.68;42.38
17260;BME280;8746;49.230;9.220;2022-09-01T14:04:05;100076.31;;;24.20;43.39
17260;BME280;8746;49.230;9.220;2022-09-01T14:06:31;100070.25;;;24.45;42.08